Weather forecasts are calculated to a 100 metre elevation grid, providing ultimate accuracy for high elevation routes. See the “severe weather” column for any noteworthy conditions.
For use of the snow symbols: HWC = high water content (wet snow). MWC = moderate water content. NWC = low water content (powder type). Confidence of snow accumulation is increased during incidence of NWC.


Time. Apparent Temperature Rain Cloud Dir Avg. Wind Gust. Wind Snow Accum. Chance of settle. Freezing height(beta) Dew Point Severe Weather
Sat 21st 16:00 14.8°C 0.0 mm 84% 12 mph 19 mph 0.00 cm % 1,484m 8.2°C
17:00 14.4°C 0.0 mm 85% 11 mph 17 mph 0.00 cm % 1,439m 8.0°C
18:00 14.0°C rainfall in vicinity 0.1 mm 82% 10 mph 15 mph 0.00 cm % 1,870m 8.2°C
19:00 12.6°C rainfall in vicinity 0.1 mm 94% 9 mph 14 mph 0.00 cm % 1,681m 7.8°C
20:00 10.4°C 0.0 mm 76% 7 mph 10 mph 0.00 cm % 1,727m 7.0°C
21:00 7.8°C 0.0 mm 83% 6 mph 9 mph 0.00 cm % 1,568m 5.8°C
22:00 7.4°C 0.0 mm 87% 6 mph 9 mph 0.00 cm % 1,472m 5.4°C
23:00 6.7°C 0.0 mm 88% 7 mph 11 mph 0.00 cm % 1,338m 4.7°C
Sun 22nd 00:00 6.4°C 0.0 mm 90% 6 mph 10 mph 0.00 cm % 1,278m 4.8°C
01:00 6.5°C 0.0 mm 100% 7 mph 10 mph 0.00 cm % 1,302m 5.1°C
02:00 6.2°C 0.0 mm 100% 8 mph 12 mph 0.00 cm % 1,236m 4.6°C
03:00 6.1°C 0.0 mm 100% 8 mph 13 mph 0.00 cm % 1,015m 3.9°C
04:00 5.9°C 0.0 mm 100% 9 mph 13 mph 0.00 cm % 988m 3.7°C
05:00 6.5°C 0.0 mm 100% 8 mph 12 mph 0.00 cm % 1,294m 4.7°C
06:00 8.5°C 0.0 mm 100% 9 mph 13 mph 0.00 cm % 1,692m 6.5°C
07:00 9.9°C 0.0 mm 100% 11 mph 16 mph 0.00 cm % 1,652m 7.3°C
08:00 10.8°C 0.0 mm 100% 13 mph 19 mph 0.00 cm % 1,804m 7.8°C
09:00 11.2°C 0.0 mm 100% 14 mph 21 mph 0.00 cm % 1,869m 8.2°C
10:00 12.4°C 0.0 mm 100% 16 mph 25 mph 0.00 cm % 2,069m 9.0°C
11:00 12.9°C 0.0 mm 100% 15 mph 22 mph 0.00 cm % 2,148m 9.1°C
12:00 13.5°C rainfall in vicinity 0.1 mm 100% 17 mph 25 mph 0.00 cm % 2,252m 9.5°C
13:00 13.9°C 0.0 mm 100% 18 mph 27 mph 0.00 cm % 1,850m 9.7°C
14:00 13.8°C rainfall in vicinity 0.1 mm 99% 17 mph 25 mph 0.00 cm % 2,292m 10.0°C
15:00 13.0°C rainfall in vicinity 0.3 mm 99% 14 mph 21 mph 0.00 cm % 2,167m 10.0°C
16:00 12.7°C 0.0 mm 99% 9 mph 14 mph 0.00 cm % 2,117m 10.1°C
17:00 13.6°C rainfall in vicinity 0.3 mm 99% 11 mph 16 mph 0.00 cm % 2,269m 10.2°C
18:00 13.0°C light rain 0.3 mm 99% 10 mph 16 mph 0.00 cm % 2,169m 10.6°C
19:00 12.1°C rainfall in vicinity 0.2 mm 97% 11 mph 16 mph 0.00 cm % 2,416m 10.1°C
20:00 10.9°C 0.0 mm 99% 7 mph 10 mph 0.00 cm % 2,188m 9.7°C
21:00 10.4°C 0.0 mm 99% 7 mph 11 mph 0.00 cm % 2,084m 9.4°C
22:00 9.8°C 0.0 mm 98% 7 mph 11 mph 0.00 cm % 1,960m 8.8°C
23:00 10.1°C mist/fog in vicinity 0.0 mm 99% 8 mph 12 mph 0.00 cm % 2,014m 9.3°C poor vis, mist
Mon 23rd 00:00 9.8°C 0.0 mm 99% 10 mph 14 mph 0.00 cm % 1,966m 8.8°C
01:00 9.4°C mist/fog in vicinity 0.0 mm 98% 9 mph 13 mph 0.00 cm % 1,888m 8.8°C poor vis, mist
02:00 9.5°C mist/fog in vicinity 0.0 mm 99% 8 mph 11 mph 0.00 cm % 1,906m 8.7°C poor vis, mist
03:00 9.5°C mist/fog in vicinity 0.0 mm 99% 7 mph 11 mph 0.00 cm % 1,896m 8.9°C poor vis, mist
04:00 9.2°C mist/fog in vicinity 0.0 mm 99% 6 mph 9 mph 0.00 cm % 1,842m 8.6°C poor vis, mist
05:00 9.2°C mist/fog in vicinity 0.0 mm 100% 6 mph 9 mph 0.00 cm % 1,844m 8.6°C poor vis, mist
06:00 9.1°C mist/fog in vicinity 0.0 mm 100% 6 mph 9 mph 0.00 cm % 1,824m 8.5°C poor vis, mist
07:00 9.3°C 0.0 mm 100% 6 mph 9 mph 0.00 cm % 1,862m 8.3°C
08:00 9.9°C 0.0 mm 100% 6 mph 9 mph 0.00 cm % 1,982m 7.9°C
09:00 10.8°C 0.0 mm 100% 6 mph 9 mph 0.00 cm % 1,806m 7.6°C
10:00 11.8°C 0.0 mm 100% 7 mph 11 mph 0.00 cm % 1,577m 7.4°C
11:00 12.1°C 0.0 mm 100% 8 mph 12 mph 0.00 cm % 1,617m 6.9°C
12:00 12.6°C 0.0 mm 100% 8 mph 12 mph 0.00 cm % 1,263m 6.2°C
13:00 13.3°C 0.0 mm 100% 8 mph 11 mph 0.00 cm % 1,331m 5.9°C
14:00 13.2°C 0.0 mm 100% 10 mph 15 mph 0.00 cm % 1,317m 5.6°C
15:00 11.7°C rainfall in vicinity 0.2 mm 100% 11 mph 16 mph 0.00 cm % 1,561m 6.7°C
16:00 11.7°C light rain 0.4 mm 100% 12 mph 18 mph 0.00 cm % 1,556m 6.7°C
17:00 9.8°C light rain 0.9 mm 100% 12 mph 18 mph 0.00 cm % 1,637m 7.2°C
18:00 8.8°C light rain 0.7 mm 100% 12 mph 18 mph 0.00 cm % 1,752m 7.0°C
19:00 7.9°C light rain 0.5 mm 100% 9 mph 13 mph 0.00 cm % 1,576m 6.7°C
20:00 7.7°C light rain 0.3 mm 100% 7 mph 10 mph 0.00 cm % 1,534m 6.5°C
21:00 7.3°C 0.0 mm 100% 8 mph 12 mph 0.00 cm % 1,456m 6.3°C
22:00 7.1°C mist/fog in vicinity 0.0 mm 100% 9 mph 14 mph 0.00 cm % 1,410m 6.3°C poor vis, mist
23:00 6.7°C mist/fog in vicinity 0.0 mm 100% 10 mph 15 mph 0.00 cm % 1,348m 6.1°C poor vis, mist
Tue 24th 00:00 6.4°C mist/fog in vicinity 0.0 mm 100% 12 mph 18 mph 0.00 cm % 1,280m 5.6°C poor vis, mist
01:00 5.8°C mist/fog in vicinity 0.0 mm 100% 13 mph 19 mph 0.00 cm % 1,166m 5.0°C poor vis, mist
02:00 5.3°C mist/fog in vicinity 0.0 mm 100% 14 mph 21 mph 0.00 cm % 1,058m 4.7°C poor vis, mist
03:00 5.4°C mist/fog in vicinity 0.0 mm 97% 15 mph 23 mph 0.00 cm % 1,082m 4.8°C poor vis, mist
04:00 6.0°C 0.0 mm 98% 19 mph 29 mph 0.00 cm % 1,192m 4.8°C
05:00 6.1°C 0.0 mm 98% 20 mph 31 mph 0.00 cm % 1,214m 4.3°C
06:00 6.4°C 0.0 mm 98% 21 mph 32 mph 0.00 cm % 1,272m 4.4°C
07:00 6.9°C 0.0 mm 100% 22 mph 33 mph 0.00 cm % 1,154m 4.3°C
08:00 7.8°C 0.0 mm 100% 22 mph 33 mph 0.00 cm % 1,294m 4.4°C
09:00 8.9°C 0.0 mm 98% 21 mph 32 mph 0.00 cm % 1,188m 4.5°C
10:00 9.6°C 0.0 mm 95% 22 mph 32 mph 0.00 cm % 959m 3.2°C
11:00 10.2°C 0.0 mm 90% 21 mph 32 mph 0.00 cm % 1,017m 2.8°C
12:00 10.4°C 0.0 mm 88% 22 mph 32 mph 0.00 cm % 1,038m 3.0°C
13:00 10.9°C 0.0 mm 82% 21 mph 31 mph 0.00 cm % 1,094m 2.9°C
14:00 11.2°C 0.0 mm 75% 21 mph 32 mph 0.00 cm % 1,115m 3.0°C
15:00 11.0°C 0.0 mm 56% 21 mph 32 mph 0.00 cm % 1,095m 3.0°C
16:00 10.6°C 0.0 mm 43% 21 mph 31 mph 0.00 cm % 1,061m 2.8°C
17:00 10.3°C 0.0 mm 35% 18 mph 27 mph 0.00 cm % 1,029m 3.5°C
18:00 9.7°C 0.0 mm 29% 15 mph 23 mph 0.00 cm % 1,288m 3.7°C
19:00 8.9°C 0.0 mm 1% 12 mph 18 mph 0.00 cm % 1,188m 3.9°C
20:00 6.9°C 0.0 mm 10% 11 mph 16 mph 0.00 cm % 1,154m 3.9°C
21:00 6.2°C 0.0 mm 8% 12 mph 17 mph 0.00 cm % 1,033m 4.0°C
22:00 5.6°C 0.0 mm 23% 10 mph 15 mph 0.00 cm % 1,118m 3.6°C
23:00 5.1°C 0.0 mm 32% 9 mph 14 mph 0.00 cm % 1,020m 3.3°C
Wed 25th 00:00 5.4°C 0.0 mm 43% 9 mph 14 mph 0.00 cm % 1,080m 3.8°C
01:00 5.4°C 0.0 mm 100% 10 mph 15 mph 0.00 cm % 1,076m 4.2°C
02:00 5.1°C mist/fog in vicinity 0.0 mm 97% 9 mph 13 mph 0.00 cm % 1,012m 4.3°C poor vis, mist
03:00 4.6°C mist/fog in vicinity 0.0 mm 95% 8 mph 12 mph 0.00 cm % 916m 3.8°C poor vis, mist
04:00 4.6°C mist/fog in vicinity 0.0 mm 97% 10 mph 15 mph 0.00 cm % 928m 3.8°C poor vis, mist
05:00 5.6°C 0.0 mm 97% 13 mph 20 mph 0.00 cm % 1,112m 3.8°C
06:00 6.7°C 0.0 mm 97% 15 mph 23 mph 0.00 cm % 1,113m 3.9°C
07:00 8.2°C 0.0 mm 92% 20 mph 30 mph 0.00 cm % 1,358m 4.8°C
08:00 8.8°C 0.0 mm 96% 22 mph 33 mph 0.00 cm % 1,469m 5.4°C
09:00 9.6°C 0.0 mm 97% 21 mph 31 mph 0.00 cm % 1,606m 5.8°C
10:00 9.2°C 0.0 mm 98% 20 mph 31 mph 0.00 cm % 1,533m 6.4°C
11:00 9.8°C light rain 0.4 mm 98% 22 mph 33 mph 0.00 cm % 1,958m 8.0°C
12:00 11.0°C light rain 0.5 mm 98% 21 mph 32 mph 0.00 cm % 1,835m 7.4°C
13:00 10.4°C rainfall in vicinity 0.2 mm 98% 24 mph 36 mph 0.00 cm % 1,388m 6.2°C Slight Gale
14:00 10.9°C 0.0 mm 99% 24 mph 36 mph 0.00 cm % 1,450m 5.3°C Slight Gale
15:00 11.6°C 0.0 mm 80% 26 mph 39 mph 0.00 cm % 1,164m 4.4°C Slight Gale